createdAt,value
2022-10-18T00:02:25.530Z,11.63
2022-10-18T00:04:55.264Z,11.58
2022-10-18T00:07:25.078Z,11.51
2022-10-18T00:09:57.249Z,11.48
2022-10-18T00:12:26.855Z,11.41
2022-10-18T00:14:56.607Z,11.35
2022-10-18T00:17:26.213Z,11.34
2022-10-18T00:19:56.093Z,11.29
2022-10-18T00:22:25.904Z,11.26
2022-10-18T00:24:58.173Z,11.24
2022-10-18T00:27:28.057Z,11.21
2022-10-18T00:29:57.856Z,11.21
2022-10-18T00:32:27.944Z,11.16
2022-10-18T00:34:57.650Z,11.09
2022-10-18T00:37:27.309Z,11.02
2022-10-18T00:39:59.544Z,10.99
2022-10-18T00:42:33.104Z,10.95
2022-10-18T00:45:25.277Z,10.95
2022-10-18T00:47:58.082Z,10.93
2022-10-18T00:50:29.816Z,10.90
2022-10-18T00:53:01.345Z,10.88
2022-10-18T00:55:35.476Z,10.86
2022-10-18T00:58:06.784Z,10.85
2022-10-18T01:00:39.256Z,10.82
2022-10-18T01:03:10.783Z,10.79
2022-10-18T01:05:45.528Z,10.77
2022-10-18T01:08:42.993Z,10.72
2022-10-18T01:11:27.553Z,10.66
2022-10-18T01:14:05.926Z,10.64
2022-10-18T01:16:40.505Z,10.60
2022-10-18T01:19:35.695Z,10.55
2022-10-18T01:22:12.084Z,10.49
2022-10-18T01:25:04.051Z,10.49
2022-10-18T01:27:46.978Z,10.49
2022-10-18T01:30:42.892Z,10.49
2022-10-18T01:33:22.777Z,10.46
2022-10-18T01:35:56.922Z,10.44
2022-10-18T01:38:28.788Z,10.40
2022-10-18T01:41:00.953Z,10.39
2022-10-18T01:43:32.884Z,10.38
2022-10-18T01:46:08.115Z,10.35
2022-10-18T01:48:39.678Z,10.33
2022-10-18T01:51:09.330Z,10.30
2022-10-18T01:53:39.174Z,10.28
2022-10-18T01:56:20.869Z,10.24
2022-10-18T01:58:58.281Z,10.21
2022-10-18T02:01:36.427Z,10.18
2022-10-18T02:04:22.106Z,10.20
2022-10-18T02:06:58.309Z,10.17
2022-10-18T02:09:38.579Z,10.14
2022-10-18T02:12:12.340Z,10.07
2022-10-18T02:14:42.590Z,10.03
2022-10-18T02:17:16.201Z,9.98
2022-10-18T02:19:49.281Z,9.96
2022-10-18T02:22:20.998Z,9.92
2022-10-18T02:24:55.942Z,9.91
2022-10-18T02:27:26.071Z,9.89
2022-10-18T02:29:56.438Z,9.86
2022-10-18T02:32:36.709Z,9.86
2022-10-18T02:35:13.468Z,9.85
2022-10-18T02:37:45.843Z,9.83
2022-10-18T02:40:16.106Z,9.82
2022-10-18T02:42:49.680Z,9.82
2022-10-18T02:45:20.653Z,9.86
2022-10-18T02:47:52.886Z,9.78
2022-10-18T02:50:22.595Z,9.72
2022-10-18T02:52:52.225Z,9.69
2022-10-18T02:55:21.896Z,9.66
2022-10-18T02:57:51.720Z,9.62
2022-10-18T03:00:21.505Z,9.57
2022-10-18T03:02:54.014Z,9.52
2022-10-18T03:05:23.785Z,9.51
2022-10-18T03:07:53.440Z,9.51
2022-10-18T03:10:23.082Z,9.51
2022-10-18T03:12:52.718Z,9.48
2022-10-18T03:15:22.325Z,9.45
2022-10-18T03:17:54.697Z,9.46
2022-10-18T03:20:24.298Z,9.41
2022-10-18T03:22:53.969Z,9.37
2022-10-18T03:25:23.651Z,9.36
2022-10-18T03:27:53.368Z,9.33
2022-10-18T03:30:23.004Z,9.37
2022-10-18T03:32:55.296Z,9.35
2022-10-18T03:35:25.343Z,9.36
2022-10-18T03:37:55.047Z,9.39
2022-10-18T03:40:24.836Z,9.41
2022-10-18T03:42:54.477Z,9.41
2022-10-18T03:45:28.832Z,9.37
2022-10-18T03:48:03.559Z,9.33
2022-10-18T03:50:33.283Z,9.32
2022-10-18T03:53:02.944Z,9.30
2022-10-18T03:55:32.500Z,9.29
2022-10-18T03:58:02.322Z,9.29
2022-10-18T04:00:32.107Z,9.29
2022-10-18T04:03:04.382Z,9.29
2022-10-18T04:05:34.729Z,9.29
2022-10-18T04:08:04.776Z,9.32
2022-10-18T04:10:34.463Z,9.32
2022-10-18T04:13:04.086Z,9.30
2022-10-18T04:15:33.799Z,9.26
2022-10-18T04:18:06.430Z,9.23
2022-10-18T04:20:36.060Z,9.22
2022-10-18T04:23:05.698Z,9.21
2022-10-18T04:25:38.500Z,9.18
2022-10-18T04:28:08.349Z,9.20
2022-10-18T04:30:38.131Z,9.16
2022-10-18T04:33:10.341Z,9.13
2022-10-18T04:35:40.006Z,9.07
2022-10-18T04:38:09.544Z,9.04
2022-10-18T04:40:40.178Z,9.05
2022-10-18T04:43:09.781Z,9.06
2022-10-18T04:45:39.708Z,9.04
2022-10-18T04:48:12.333Z,9.05
2022-10-18T04:50:42.019Z,9.06
2022-10-18T04:53:11.910Z,9.05
2022-10-18T04:55:41.620Z,9.05
2022-10-18T04:58:11.339Z,9.05
2022-10-18T05:00:42.091Z,9.06
2022-10-18T05:03:16.096Z,9.04
2022-10-18T05:06:03.446Z,9.05
2022-10-18T05:08:34.057Z,9.03
2022-10-18T05:11:04.854Z,9.00
2022-10-18T05:13:34.549Z,8.97
2022-10-18T05:16:04.284Z,8.95
2022-10-18T05:18:36.670Z,8.92
2022-10-18T05:21:13.505Z,8.89
2022-10-18T05:23:43.575Z,8.89
2022-10-18T05:26:13.326Z,8.84
2022-10-18T05:28:43.053Z,8.77
2022-10-18T05:31:14.257Z,8.75
2022-10-18T05:33:46.534Z,8.70
2022-10-18T05:36:16.177Z,8.68
2022-10-18T05:38:48.491Z,8.65
2022-10-18T05:41:18.612Z,8.65
2022-10-18T05:43:48.835Z,8.62
2022-10-18T05:46:19.060Z,8.60
2022-10-18T05:48:53.953Z,8.55
2022-10-18T05:51:23.838Z,8.51
2022-10-18T05:53:54.946Z,8.47
2022-10-18T05:56:24.806Z,8.45
2022-10-18T05:58:54.885Z,8.42
2022-10-18T06:01:24.697Z,8.41
2022-10-18T06:03:57.125Z,8.40
2022-10-18T06:06:26.716Z,8.37
2022-10-18T06:08:56.396Z,8.40
2022-10-18T06:11:26.478Z,8.39
2022-10-18T06:13:57.872Z,8.38
2022-10-18T06:16:32.205Z,8.37
2022-10-18T06:19:04.931Z,8.37
2022-10-18T06:21:35.026Z,8.35
2022-10-18T06:24:04.651Z,8.36
2022-10-18T06:26:34.296Z,8.36
2022-10-18T06:29:03.903Z,8.36
2022-10-18T06:31:33.863Z,8.35
2022-10-18T06:34:06.240Z,8.33
2022-10-18T06:36:35.928Z,8.33
2022-10-18T06:39:05.621Z,8.31
2022-10-18T06:41:35.288Z,8.34
2022-10-18T06:44:13.644Z,8.33
2022-10-18T06:46:43.559Z,8.33
2022-10-18T06:49:19.480Z,8.34
2022-10-18T06:51:49.316Z,8.33
2022-10-18T06:54:19.476Z,8.34
2022-10-18T06:56:49.474Z,8.36
2022-10-18T06:59:19.290Z,8.39
2022-10-18T07:01:48.888Z,8.39
2022-10-18T07:04:21.075Z,8.39
2022-10-18T07:06:50.718Z,8.39
2022-10-18T07:09:20.342Z,8.46
2022-10-18T07:11:49.913Z,8.48
2022-10-18T07:14:19.497Z,8.47
2022-10-18T07:16:49.012Z,8.49
2022-10-18T07:19:21.289Z,8.54
2022-10-18T07:21:50.942Z,8.57
2022-10-18T07:24:20.537Z,8.58
2022-10-18T07:26:50.247Z,8.62
2022-10-18T07:29:20.073Z,8.62
2022-10-18T07:31:49.737Z,8.69
2022-10-18T07:34:21.954Z,8.75
2022-10-18T07:36:51.565Z,8.90
2022-10-18T07:39:21.113Z,9.02
2022-10-18T07:41:50.934Z,9.17
2022-10-18T07:44:20.502Z,9.20
2022-10-18T07:46:50.240Z,9.28
2022-10-18T07:49:22.481Z,9.30
2022-10-18T07:51:52.319Z,9.30
2022-10-18T07:54:22.438Z,9.35
2022-10-18T07:56:52.150Z,9.51
2022-10-18T07:59:21.786Z,9.83
2022-10-18T08:01:51.368Z,9.80
2022-10-18T08:04:23.765Z,9.95
2022-10-18T08:06:53.427Z,10.02
2022-10-18T08:09:23.251Z,10.10
2022-10-18T08:11:52.785Z,10.20
2022-10-18T08:14:22.487Z,10.34
2022-10-18T08:16:52.071Z,10.52
2022-10-18T08:19:25.205Z,10.63
2022-10-18T08:21:54.834Z,10.81
2022-10-18T08:24:25.341Z,10.96
2022-10-18T08:26:55.114Z,11.22
2022-10-18T08:29:28.104Z,11.48
2022-10-18T08:32:00.649Z,11.68
2022-10-18T08:34:33.619Z,11.95
2022-10-18T08:37:06.354Z,12.12
2022-10-18T08:39:36.042Z,12.32
2022-10-18T08:42:34.504Z,12.49
2022-10-18T08:45:12.986Z,12.67
2022-10-18T08:47:57.290Z,12.89
2022-10-18T08:50:36.683Z,13.07
2022-10-18T08:53:16.135Z,13.26
2022-10-18T08:55:48.802Z,13.46
2022-10-18T08:58:22.209Z,13.58
2022-10-18T09:01:06.022Z,13.70
2022-10-18T09:03:57.810Z,13.93
2022-10-18T09:06:38.039Z,14.14
2022-10-18T09:09:23.235Z,14.12
2022-10-18T09:12:05.416Z,14.39
2022-10-18T09:15:01.342Z,14.52
2022-10-18T09:17:39.442Z,14.52
2022-10-18T09:20:26.251Z,14.70
2022-10-18T09:23:01.801Z,14.89
2022-10-18T09:25:39.005Z,14.99
2022-10-18T09:28:29.145Z,15.02
2022-10-18T09:31:07.820Z,15.01
2022-10-18T09:33:56.271Z,14.96
2022-10-18T09:36:32.480Z,15.04
2022-10-18T09:39:08.015Z,15.10
2022-10-18T09:41:47.396Z,15.19
2022-10-18T09:44:23.812Z,15.19
2022-10-18T09:46:59.625Z,15.40
2022-10-18T09:49:33.747Z,15.62
2022-10-18T09:52:10.478Z,15.69
2022-10-18T09:54:47.800Z,15.73
2022-10-18T09:57:24.911Z,15.78
2022-10-18T09:59:54.599Z,15.73
2022-10-18T10:02:26.032Z,15.88
2022-10-18T10:04:57.174Z,15.99
2022-10-18T10:07:32.562Z,16.19
2022-10-18T10:10:15.400Z,16.51
2022-10-18T10:12:46.022Z,16.50
2022-10-18T10:15:22.802Z,16.55
2022-10-18T10:18:04.241Z,16.43
2022-10-18T10:20:38.493Z,16.51
2022-10-18T10:23:10.325Z,16.52
2022-10-18T10:25:45.168Z,16.56
2022-10-18T10:28:18.838Z,16.61
2022-10-18T10:30:48.750Z,16.68
2022-10-18T10:33:35.436Z,16.87
2022-10-18T10:36:07.246Z,16.92
2022-10-18T10:38:36.866Z,16.85
2022-10-18T10:41:22.766Z,16.99
2022-10-18T10:43:53.685Z,17.06
2022-10-18T10:46:23.809Z,17.22
2022-10-18T10:49:15.403Z,17.57
2022-10-18T10:51:53.670Z,17.78
2022-10-18T10:54:36.886Z,17.77
2022-10-18T10:57:22.657Z,17.82
2022-10-18T10:59:54.765Z,17.65
2022-10-18T11:02:29.707Z,17.48
2022-10-18T11:05:18.028Z,17.58
2022-10-18T11:07:49.683Z,17.61
2022-10-18T11:10:25.849Z,17.67
2022-10-18T11:13:06.107Z,17.79
2022-10-18T11:15:40.992Z,17.94
2022-10-18T11:18:20.015Z,18.05
2022-10-18T11:20:55.848Z,18.24
2022-10-18T11:23:32.293Z,17.97
2022-10-18T11:26:16.521Z,17.91
2022-10-18T11:29:20.753Z,18.27
2022-10-18T11:31:59.280Z,18.57
2022-10-18T11:34:45.703Z,18.14
2022-10-18T11:37:33.410Z,18.53
2022-10-18T11:40:19.911Z,18.20
2022-10-18T11:42:54.735Z,17.92
2022-10-18T11:45:40.375Z,17.91
2022-10-18T11:48:31.169Z,18.02
2022-10-18T11:51:08.838Z,18.09
2022-10-18T11:53:51.725Z,17.93
2022-10-18T11:56:33.205Z,18.09
2022-10-18T11:59:25.207Z,18.03
2022-10-18T12:02:06.658Z,17.97
2022-10-18T12:04:49.011Z,17.92
2022-10-18T12:07:33.714Z,18.12
2022-10-18T12:10:05.906Z,17.97
2022-10-18T12:15:22.009Z,18.73
2022-10-18T12:17:57.131Z,18.61
2022-10-18T12:20:34.511Z,18.73
2022-10-18T12:23:06.395Z,18.68
2022-10-18T12:25:40.006Z,18.43
2022-10-18T12:28:19.886Z,18.15
2022-10-18T12:30:56.738Z,18.35
2022-10-18T12:33:33.510Z,18.12
2022-10-18T12:36:16.933Z,18.13
2022-10-18T12:38:51.838Z,18.13
2022-10-18T12:41:25.057Z,18.36
2022-10-18T12:43:55.924Z,18.21
2022-10-18T12:46:26.037Z,18.03
2022-10-18T12:49:08.732Z,17.89
2022-10-18T12:51:38.313Z,17.92
2022-10-18T12:54:15.658Z,18.00
2022-10-18T12:56:47.696Z,17.85
2022-10-18T12:59:53.945Z,17.98
2022-10-18T13:02:31.868Z,18.01
2022-10-18T13:05:49.008Z,17.72
2022-10-18T13:08:42.116Z,17.98
2022-10-18T13:14:44.186Z,18.03
2022-10-18T13:17:33.444Z,17.87
2022-10-18T13:20:27.106Z,17.97
2022-10-18T13:23:10.782Z,17.86
2022-10-18T13:25:54.374Z,17.71
2022-10-18T13:28:34.130Z,18.11
2022-10-18T13:31:12.455Z,18.04
2022-10-18T13:33:44.896Z,18.11
2022-10-18T13:36:29.667Z,18.09
2022-10-18T13:39:06.115Z,18.26
2022-10-18T13:42:10.762Z,18.40
2022-10-18T13:44:41.913Z,18.38
2022-10-18T13:47:16.640Z,17.88
2022-10-18T13:50:08.154Z,17.79
2022-10-18T13:56:01.026Z,17.65
2022-10-18T13:58:49.047Z,18.18
2022-10-18T14:01:42.475Z,17.96
2022-10-18T14:04:42.613Z,17.63
2022-10-18T14:07:14.736Z,17.77
2022-10-18T14:09:56.145Z,17.76
2022-10-18T14:12:33.975Z,17.39
2022-10-18T14:15:12.974Z,17.68
2022-10-18T14:17:47.394Z,17.74
2022-10-18T14:20:29.329Z,17.81
2022-10-18T14:23:05.749Z,17.57
2022-10-18T14:25:40.790Z,17.57
2022-10-18T14:28:15.717Z,17.86
2022-10-18T14:30:56.503Z,17.89
2022-10-18T14:33:32.649Z,17.53
2022-10-18T14:36:11.576Z,17.44
2022-10-18T14:38:56.042Z,17.76
2022-10-18T14:41:29.646Z,17.38
2022-10-18T14:44:21.267Z,17.59
2022-10-18T14:46:52.577Z,17.83
2022-10-18T14:49:25.201Z,17.94
2022-10-18T14:51:56.479Z,18.24
2022-10-18T14:54:31.797Z,18.08
2022-10-18T14:57:06.101Z,17.96
2022-10-18T14:59:43.008Z,17.53
2022-10-18T15:02:17.777Z,17.21
2022-10-18T15:04:48.547Z,17.25
2022-10-18T15:07:20.886Z,17.54
2022-10-18T15:09:51.290Z,17.37
2022-10-18T15:12:23.728Z,16.76
2022-10-18T15:14:54.795Z,16.48
2022-10-18T15:17:28.815Z,16.33
2022-10-18T15:20:05.152Z,16.44
2022-10-18T15:22:36.830Z,16.20
2022-10-18T15:25:17.389Z,16.08
2022-10-18T15:27:53.113Z,16.00
2022-10-18T15:30:27.985Z,15.82
2022-10-18T15:33:03.854Z,15.60
2022-10-18T15:35:35.859Z,15.52
2022-10-18T15:38:17.764Z,15.53
2022-10-18T15:40:47.743Z,15.42
2022-10-18T15:43:41.021Z,15.42
2022-10-18T15:46:34.010Z,15.23
2022-10-18T15:49:48.433Z,15.16
2022-10-18T15:52:42.578Z,15.02
2022-10-18T15:55:26.950Z,15.08
2022-10-18T15:57:57.689Z,15.00
2022-10-18T16:00:30.770Z,15.00
2022-10-18T16:03:00.635Z,14.87
2022-10-18T16:05:30.845Z,14.85
2022-10-18T16:08:01.084Z,14.73
2022-10-18T16:10:31.336Z,14.72
2022-10-18T16:13:01.268Z,14.66
2022-10-18T16:15:33.602Z,14.55
2022-10-18T16:18:05.986Z,14.50
2022-10-18T16:20:35.885Z,14.41
2022-10-18T16:23:05.516Z,14.34
2022-10-18T16:25:35.864Z,14.17
2022-10-18T16:28:05.497Z,14.12
2022-10-18T16:30:39.046Z,14.01
2022-10-18T16:33:08.454Z,13.95
2022-10-18T16:35:38.424Z,13.88
2022-10-18T16:38:08.475Z,13.83
2022-10-18T16:40:41.160Z,13.73
2022-10-18T16:43:14.398Z,13.66
2022-10-18T16:45:49.830Z,13.58
2022-10-18T16:48:22.495Z,13.47
2022-10-18T16:50:53.152Z,13.40
2022-10-18T16:53:23.872Z,13.30
2022-10-18T16:55:56.943Z,13.23
2022-10-18T16:58:28.456Z,13.14
2022-10-18T17:01:04.048Z,13.06
2022-10-18T17:03:36.612Z,12.95
2022-10-18T17:06:06.434Z,12.83
2022-10-18T17:08:36.242Z,12.74
2022-10-18T17:11:06.098Z,12.59
2022-10-18T17:13:35.864Z,12.49
2022-10-18T17:16:09.917Z,12.38
2022-10-18T17:18:39.597Z,12.29
2022-10-18T17:21:09.243Z,12.19
2022-10-18T17:23:39.129Z,12.11
2022-10-18T17:26:27.732Z,12.04
2022-10-18T17:29:01.096Z,11.93
2022-10-18T17:31:35.862Z,11.84
2022-10-18T17:34:05.713Z,11.75
2022-10-18T17:36:36.344Z,11.67
2022-10-18T17:39:06.597Z,11.59
2022-10-18T17:41:36.398Z,11.52
2022-10-18T17:44:06.594Z,11.42
2022-10-18T17:46:40.204Z,11.33
2022-10-18T17:49:10.014Z,11.27
2022-10-18T17:51:41.377Z,11.19
2022-10-18T17:54:11.389Z,11.12
2022-10-18T17:56:42.654Z,11.06
2022-10-18T17:59:12.257Z,11.00
2022-10-18T18:01:44.773Z,10.93
2022-10-18T18:04:15.174Z,10.85
2022-10-18T18:06:45.563Z,10.76
2022-10-18T18:09:17.712Z,10.70
2022-10-18T18:11:49.549Z,10.60
2022-10-18T18:14:19.553Z,10.54
2022-10-18T18:16:52.674Z,10.48
2022-10-18T18:19:24.160Z,10.40
2022-10-18T18:21:58.942Z,10.35
2022-10-18T18:24:30.682Z,10.30
2022-10-18T18:27:00.893Z,10.24
2022-10-18T18:29:30.852Z,10.19
2022-10-18T18:32:03.829Z,10.12
2022-10-18T18:34:34.242Z,10.08
2022-10-18T18:37:03.973Z,10.02
2022-10-18T18:39:36.005Z,9.95
2022-10-18T18:42:06.790Z,9.91
2022-10-18T18:44:37.279Z,9.87
2022-10-18T18:47:13.165Z,9.81
2022-10-18T18:49:45.225Z,9.75
2022-10-18T18:52:14.846Z,9.76
2022-10-18T18:54:46.551Z,9.69
2022-10-18T18:57:16.687Z,9.66
2022-10-18T18:59:46.432Z,9.63
2022-10-18T19:02:18.701Z,9.59
2022-10-18T19:04:48.360Z,9.56
2022-10-18T19:07:18.066Z,9.55
2022-10-18T19:09:50.610Z,9.59
2022-10-18T19:12:21.426Z,9.62
2022-10-18T19:14:51.189Z,9.68
2022-10-18T19:17:23.787Z,9.69
2022-10-18T19:19:54.205Z,9.64
2022-10-18T19:22:23.825Z,9.61
2022-10-18T19:24:54.052Z,9.60
2022-10-18T19:27:23.640Z,9.60
2022-10-18T19:29:53.385Z,9.55
2022-10-18T19:32:25.764Z,9.52
2022-10-18T19:34:55.560Z,9.43
2022-10-18T19:37:25.418Z,9.38
2022-10-18T19:39:55.218Z,9.31
2022-10-18T19:42:30.323Z,9.26
2022-10-18T19:45:01.164Z,9.24
2022-10-18T19:47:33.448Z,9.18
2022-10-18T19:50:03.524Z,9.11
2022-10-18T19:52:33.842Z,9.05
2022-10-18T19:55:03.792Z,9.00
2022-10-18T19:57:33.581Z,8.94
2022-10-18T20:00:05.451Z,8.89
2022-10-18T20:02:40.638Z,8.84
2022-10-18T20:05:11.070Z,8.80
2022-10-18T20:07:41.355Z,8.81
2022-10-18T20:10:11.554Z,8.80
2022-10-18T20:12:41.177Z,8.73
2022-10-18T20:15:12.204Z,8.75
2022-10-18T20:17:44.852Z,8.72
2022-10-18T20:20:15.255Z,8.74
2022-10-18T20:22:44.925Z,8.70
2022-10-18T20:25:14.670Z,8.70
2022-10-18T20:27:44.724Z,8.70
2022-10-18T20:30:14.705Z,8.73
2022-10-18T20:32:47.582Z,8.70
2022-10-18T20:35:17.577Z,8.71
2022-10-18T20:37:47.605Z,8.69
2022-10-18T20:40:18.193Z,8.64
2022-10-18T20:42:47.995Z,8.55
2022-10-18T20:45:17.803Z,8.49
2022-10-18T20:47:50.231Z,8.42
2022-10-18T20:50:19.974Z,8.33
2022-10-18T20:52:51.413Z,8.27
2022-10-18T20:55:21.327Z,8.24
2022-10-18T20:57:50.897Z,8.18
2022-10-18T21:00:20.651Z,8.14
2022-10-18T21:02:53.077Z,8.08
2022-10-18T21:05:24.480Z,8.00
2022-10-18T21:07:54.059Z,7.98
2022-10-18T21:10:26.870Z,7.97
2022-10-18T21:12:56.526Z,7.92
2022-10-18T21:15:26.109Z,7.86
2022-10-18T21:17:58.250Z,7.82
2022-10-18T21:20:27.959Z,7.75
2022-10-18T21:22:57.564Z,7.72
2022-10-18T21:25:27.161Z,7.70
2022-10-18T21:27:57.017Z,7.66
2022-10-18T21:30:26.602Z,7.65
2022-10-18T21:32:58.862Z,7.58
2022-10-18T21:35:28.465Z,7.55
2022-10-18T21:37:57.995Z,7.50
2022-10-18T21:40:27.687Z,7.46
2022-10-18T21:42:57.357Z,7.42
2022-10-18T21:45:27.145Z,7.39
2022-10-18T21:47:59.500Z,7.38
2022-10-18T21:50:29.127Z,7.35
2022-10-18T21:52:58.810Z,7.36
2022-10-18T21:55:28.425Z,7.34
2022-10-18T21:57:57.952Z,7.32
2022-10-18T22:00:27.495Z,7.30
2022-10-18T22:03:11.702Z,7.28
2022-10-18T22:05:42.554Z,7.26
2022-10-18T22:08:12.654Z,7.27
2022-10-18T22:10:45.100Z,7.22
2022-10-18T22:13:14.716Z,7.19
2022-10-18T22:15:44.833Z,7.17
2022-10-18T22:18:18.292Z,7.09
2022-10-18T22:20:56.551Z,7.06
2022-10-18T22:23:26.292Z,7.05
2022-10-18T22:25:56.107Z,7.01
2022-10-18T22:28:25.781Z,6.97
2022-10-18T22:30:55.385Z,6.96
2022-10-18T22:33:27.795Z,6.95
2022-10-18T22:35:57.422Z,6.89
2022-10-18T22:38:27.244Z,6.89
2022-10-18T22:40:56.895Z,6.85
2022-10-18T22:43:26.654Z,6.81
2022-10-18T22:45:56.296Z,6.79
2022-10-18T22:48:28.593Z,6.75
2022-10-18T22:50:58.546Z,6.75
2022-10-18T22:53:28.850Z,6.72
2022-10-18T22:55:58.508Z,6.69
2022-10-18T22:58:28.696Z,6.64
2022-10-18T23:01:03.495Z,6.65
2022-10-18T23:03:36.383Z,6.61
2022-10-18T23:06:06.782Z,6.59
2022-10-18T23:08:36.620Z,6.54
2022-10-18T23:11:06.269Z,6.51
2022-10-18T23:13:38.781Z,6.48
2022-10-18T23:16:09.828Z,6.48
2022-10-18T23:18:42.221Z,6.47
2022-10-18T23:21:16.859Z,6.45
2022-10-18T23:23:47.195Z,6.41
2022-10-18T23:26:18.757Z,6.39
2022-10-18T23:28:50.630Z,6.35
2022-10-18T23:31:23.757Z,6.35
2022-10-18T23:33:57.698Z,6.33
2022-10-18T23:36:28.347Z,6.31
2022-10-18T23:38:58.406Z,6.30
2022-10-18T23:41:28.901Z,6.29
2022-10-18T23:43:58.635Z,6.24
2022-10-18T23:46:28.192Z,6.24
2022-10-18T23:49:00.377Z,6.24
2022-10-18T23:51:30.345Z,6.25
2022-10-18T23:54:00.098Z,6.22
2022-10-18T23:56:29.706Z,6.17
2022-10-18T23:58:59.325Z,6.14
